createdAt,value
2022-10-23T00:02:16.636Z,93056.97
2022-10-23T00:04:46.042Z,93066.81
2022-10-23T00:07:15.329Z,93071.66
2022-10-23T00:09:44.701Z,93069.63
2022-10-23T00:12:14.349Z,93066.75
2022-10-23T00:14:43.660Z,93059.13
2022-10-23T00:17:13.849Z,93057.53
2022-10-23T00:19:44.597Z,93046.50
2022-10-23T00:22:13.826Z,93047.97
2022-10-23T00:24:43.301Z,93051.03
2022-10-23T00:27:12.566Z,93041.69
2022-10-23T00:29:41.878Z,93032.66
2022-10-23T00:32:11.257Z,93042.50
2022-10-23T00:34:40.624Z,93048.91
2022-10-23T00:37:11.516Z,93048.13
2022-10-23T00:39:41.014Z,93056.84
2022-10-23T00:42:12.053Z,93053.47
2022-10-23T00:45:22.263Z,93048.69
2022-10-23T00:47:52.548Z,93045.44
2022-10-23T00:51:35.977Z,93051.34
2022-10-23T00:54:37.110Z,93040.88
2022-10-23T00:57:00.233Z,93042.44
2022-10-23T00:59:30.714Z,93046.69
2022-10-23T01:02:01.098Z,93054.97
2022-10-23T01:04:32.093Z,93050.69
2022-10-23T01:07:16.902Z,93052.16
2022-10-23T01:10:00.353Z,93045.91
2022-10-23T01:12:39.474Z,93050.16
2022-10-23T01:15:18.414Z,93048.97
2022-10-23T01:17:56.749Z,93048.97
2022-10-23T01:20:42.454Z,93044.72
2022-10-23T01:23:58.170Z,93034.50
2022-10-23T01:26:57.089Z,93033.56
2022-10-23T01:29:37.689Z,93041.53
2022-10-23T01:32:12.615Z,93039.16
2022-10-23T01:34:50.833Z,93040.72
2022-10-23T01:37:28.270Z,93044.59
2022-10-23T01:40:01.653Z,93036.69
2022-10-23T01:42:38.328Z,93041.00
2022-10-23T01:45:15.744Z,93039.75
2022-10-23T01:47:47.455Z,93044.66
2022-10-23T01:50:19.303Z,93046.84
2022-10-23T01:52:48.703Z,93047.78
2022-10-23T01:55:19.795Z,93041.47
2022-10-23T01:57:51.552Z,93047.31
2022-10-23T02:00:23.313Z,93045.34
2022-10-23T02:02:54.814Z,93048.03
2022-10-23T02:05:28.092Z,93047.31
2022-10-23T02:07:57.863Z,93043.56
2022-10-23T02:10:34.690Z,93048.38
2022-10-23T02:13:10.840Z,93050.84
2022-10-23T02:15:49.187Z,93052.63
2022-10-23T02:18:35.675Z,93060.91
2022-10-23T02:21:11.095Z,93052.94
2022-10-23T02:23:48.826Z,93058.34
2022-10-23T02:26:25.641Z,93062.06
2022-10-23T02:29:00.489Z,93066.09
2022-10-23T02:31:31.419Z,93063.13
2022-10-23T02:34:00.715Z,93069.03
2022-10-23T02:36:30.229Z,93061.94
2022-10-23T02:38:59.702Z,93072.44
2022-10-23T02:41:41.745Z,93080.44
2022-10-23T02:44:30.510Z,93082.84
2022-10-23T02:47:15.945Z,93085.28
2022-10-23T02:49:56.631Z,93091.50
2022-10-23T02:52:33.398Z,93099.94
2022-10-23T02:55:16.578Z,93098.47
2022-10-23T02:57:54.606Z,93101.06
2022-10-23T03:00:26.900Z,93102.19
2022-10-23T03:03:02.376Z,93093.38
2022-10-23T03:05:36.226Z,93101.72
2022-10-23T03:08:06.169Z,93102.47
2022-10-23T03:10:35.580Z,93101.72
2022-10-23T03:13:05.255Z,93104.19
2022-10-23T03:15:34.786Z,93104.56
2022-10-23T03:18:05.733Z,93102.31
2022-10-23T03:20:35.100Z,93109.75
2022-10-23T03:23:04.489Z,93115.69
2022-10-23T03:25:33.854Z,93113.91
2022-10-23T03:28:03.151Z,93116.72
2022-10-23T03:30:32.547Z,93124.44
2022-10-23T03:33:03.502Z,93122.78
2022-10-23T03:35:32.849Z,93127.41
2022-10-23T03:38:02.130Z,93130.94
2022-10-23T03:40:31.473Z,93127.50
2022-10-23T03:43:00.914Z,93131.22
2022-10-23T03:45:31.111Z,93129.66
2022-10-23T03:48:00.372Z,93137.00
2022-10-23T03:52:30.263Z,93132.09
2022-10-23T03:54:59.657Z,93132.09
2022-10-23T03:57:29.046Z,93127.47
2022-10-23T03:59:58.348Z,93131.53
2022-10-23T04:02:27.837Z,93123.38
2022-10-23T04:04:57.258Z,93130.97
2022-10-23T04:07:26.868Z,93127.28
2022-10-23T04:09:57.672Z,93123.63
2022-10-23T04:12:27.111Z,93123.72
2022-10-23T04:14:56.565Z,93123.72
2022-10-23T04:17:26.128Z,93121.69
2022-10-23T04:19:55.477Z,93124.13
2022-10-23T04:22:27.576Z,93119.38
2022-10-23T04:24:59.640Z,93125.00
2022-10-23T04:27:29.080Z,93119.75
2022-10-23T04:29:59.174Z,93125.94
2022-10-23T04:32:28.851Z,93125.56
2022-10-23T04:34:58.266Z,93121.66
2022-10-23T04:37:28.269Z,93116.66
2022-10-23T04:39:59.140Z,93120.47
2022-10-23T04:42:28.473Z,93120.38
2022-10-23T04:44:58.083Z,93127.16
2022-10-23T04:47:27.408Z,93126.31
2022-10-23T04:49:56.747Z,93119.88
2022-10-23T04:52:26.117Z,93126.84
2022-10-23T04:54:55.821Z,93123.63
2022-10-23T04:57:26.820Z,93127.69
2022-10-23T04:59:56.146Z,93133.75
2022-10-23T05:02:25.731Z,93132.69
2022-10-23T05:04:55.004Z,93140.44
2022-10-23T05:07:24.305Z,93140.16
2022-10-23T05:09:53.813Z,93147.56
2022-10-23T05:12:25.618Z,93142.47
2022-10-23T05:14:56.685Z,93140.25
2022-10-23T05:17:33.134Z,93140.06
2022-10-23T05:20:05.995Z,93139.38
2022-10-23T05:22:38.750Z,93139.53
2022-10-23T05:25:09.193Z,93142.97
2022-10-23T05:27:38.610Z,93142.41
2022-10-23T05:30:11.434Z,93141.63
2022-10-23T05:32:41.767Z,93139.19
2022-10-23T05:35:17.569Z,93137.56
2022-10-23T05:37:49.827Z,93141.53
2022-10-23T05:40:19.994Z,93141.91
2022-10-23T05:42:49.351Z,93130.25
2022-10-23T05:45:21.285Z,93131.16
2022-10-23T05:47:50.864Z,93145.88
2022-10-23T05:50:20.369Z,93166.56
2022-10-23T05:52:50.663Z,93157.56
2022-10-23T05:55:20.147Z,93169.50
2022-10-23T05:57:49.545Z,93167.94
2022-10-23T06:00:22.368Z,93169.88
2022-10-23T06:02:51.836Z,93181.56
2022-10-23T06:05:21.264Z,93180.66
2022-10-23T06:07:50.456Z,93191.38
2022-10-23T06:10:20.152Z,93187.22
2022-10-23T06:12:49.453Z,93192.91
2022-10-23T06:15:20.595Z,93190.03
2022-10-23T06:17:50.042Z,93190.34
2022-10-23T06:20:21.584Z,93200.63
2022-10-23T06:22:53.350Z,93193.84
2022-10-23T06:25:23.079Z,93190.53
2022-10-23T06:27:53.589Z,93188.75
2022-10-23T06:30:24.467Z,93183.94
2022-10-23T06:32:53.911Z,93183.16
2022-10-23T06:35:23.319Z,93188.56
2022-10-23T06:37:52.593Z,93204.09
2022-10-23T06:40:22.018Z,93203.38
2022-10-23T06:42:51.354Z,93205.16
2022-10-23T06:45:20.714Z,93201.13
2022-10-23T06:47:52.762Z,93210.97
2022-10-23T06:52:46.483Z,93232.88
2022-10-23T06:55:16.814Z,93234.63
2022-10-23T06:57:46.647Z,93238.66
2022-10-23T07:00:16.771Z,93231.53
2022-10-23T07:02:46.499Z,93239.84
2022-10-23T07:05:15.866Z,93233.13
2022-10-23T07:07:46.874Z,93232.28
2022-10-23T07:10:16.668Z,93234.50
2022-10-23T07:12:47.909Z,93237.50
2022-10-23T07:15:17.708Z,93231.34
2022-10-23T07:17:46.948Z,93223.25
2022-10-23T07:20:16.678Z,93225.81
2022-10-23T07:22:54.760Z,93224.19
2022-10-23T07:25:24.939Z,93232.00
2022-10-23T07:27:56.044Z,93230.78
2022-10-23T07:30:25.711Z,93231.53
2022-10-23T07:32:55.052Z,93225.03
2022-10-23T07:35:24.656Z,93222.53
2022-10-23T07:37:55.700Z,93218.34
2022-10-23T07:40:25.152Z,93215.75
2022-10-23T07:42:54.672Z,93203.56
2022-10-23T07:45:24.475Z,93209.75
2022-10-23T07:47:54.161Z,93220.97
2022-10-23T07:50:23.466Z,93221.66
2022-10-23T07:52:54.270Z,93219.94
2022-10-23T07:55:23.883Z,93219.31
2022-10-23T07:57:53.235Z,93225.66
2022-10-23T08:00:25.850Z,93216.91
2022-10-23T08:02:55.328Z,93220.41
2022-10-23T08:05:24.792Z,93217.16
2022-10-23T08:07:55.633Z,93218.63
2022-10-23T08:10:25.044Z,93229.91
2022-10-23T08:12:54.479Z,93233.25
2022-10-23T08:15:24.013Z,93230.81
2022-10-23T08:17:53.434Z,93241.94
2022-10-23T08:20:22.934Z,93234.63
2022-10-23T08:22:55.807Z,93232.47
2022-10-23T08:25:26.071Z,93235.13
2022-10-23T08:27:55.610Z,93244.75
2022-10-23T08:30:24.888Z,93258.34
2022-10-23T08:32:54.405Z,93252.22
2022-10-23T08:35:23.893Z,93256.19
2022-10-23T08:37:54.894Z,93259.34
2022-10-23T08:40:27.145Z,93246.56
2022-10-23T08:43:03.161Z,93240.75
2022-10-23T08:45:37.122Z,93243.72
2022-10-23T08:48:25.527Z,93236.28
2022-10-23T08:50:59.787Z,93258.84
2022-10-23T08:53:38.114Z,93255.03
2022-10-23T08:56:15.350Z,93256.69
2022-10-23T09:01:40.607Z,93257.69
2022-10-23T09:04:14.912Z,93260.22
2022-10-23T09:06:56.372Z,93265.00
2022-10-23T09:09:53.738Z,93259.72
2022-10-23T09:12:27.770Z,93270.47
2022-10-23T09:15:24.788Z,93274.44
2022-10-23T09:18:00.718Z,93268.31
2022-10-23T09:20:35.464Z,93268.19
2022-10-23T09:23:14.365Z,93262.69
2022-10-23T09:25:46.171Z,93264.84
2022-10-23T09:28:22.410Z,93271.47
2022-10-23T09:30:53.409Z,93272.81
2022-10-23T09:33:29.418Z,93271.78
2022-10-23T09:36:02.012Z,93274.13
2022-10-23T09:38:36.533Z,93285.25
2022-10-23T09:41:15.179Z,93286.91
2022-10-23T09:43:44.947Z,93278.22
2022-10-23T09:46:14.294Z,93267.28
2022-10-23T09:48:43.673Z,93267.28
2022-10-23T09:52:35.209Z,93261.63
2022-10-23T09:55:24.377Z,93252.31
2022-10-23T09:57:55.730Z,93251.50
2022-10-23T10:00:27.305Z,93244.88
2022-10-23T10:03:03.144Z,93242.06
2022-10-23T10:05:35.227Z,93247.25
2022-10-23T10:08:17.059Z,93234.50
2022-10-23T10:10:53.020Z,93237.97
2022-10-23T10:13:56.071Z,93236.63
2022-10-23T10:19:37.409Z,93241.94
2022-10-23T10:22:13.660Z,93245.41
2022-10-23T10:24:52.969Z,93238.09
2022-10-23T10:27:41.067Z,93238.25
2022-10-23T10:30:16.334Z,93236.94
2022-10-23T10:32:53.677Z,93240.41
2022-10-23T10:35:39.452Z,93227.63
2022-10-23T10:38:46.960Z,93220.00
2022-10-23T10:41:52.685Z,93225.31
2022-10-23T10:44:46.377Z,93227.84
2022-10-23T10:47:25.891Z,93219.81
2022-10-23T10:50:09.153Z,93229.78
2022-10-23T10:52:49.831Z,93217.81
2022-10-23T10:55:26.867Z,93210.19
2022-10-23T10:58:04.573Z,93205.06
2022-10-23T11:00:36.737Z,93211.72
2022-10-23T11:03:14.289Z,93208.56
2022-10-23T11:05:47.330Z,93201.28
2022-10-23T11:08:25.142Z,93203.25
2022-10-23T11:11:01.014Z,93206.22
2022-10-23T11:13:38.139Z,93202.41
2022-10-23T11:16:14.344Z,93202.56
2022-10-23T11:18:46.903Z,93210.38
2022-10-23T11:21:31.744Z,93205.03
2022-10-23T11:24:42.155Z,93204.16
2022-10-23T11:27:35.660Z,93190.00
2022-10-23T11:30:27.374Z,93195.75
2022-10-23T11:33:39.271Z,93194.19
2022-10-23T11:36:19.189Z,93192.22
2022-10-23T11:38:51.559Z,93196.66
2022-10-23T11:41:26.795Z,93193.84
2022-10-23T11:44:01.760Z,93192.16
2022-10-23T11:46:38.629Z,93189.09
2022-10-23T11:49:22.271Z,93178.03
2022-10-23T11:52:03.450Z,93187.91
2022-10-23T11:54:32.939Z,93182.00
2022-10-23T11:57:15.042Z,93175.72
2022-10-23T11:59:56.250Z,93167.81
2022-10-23T12:02:33.764Z,93166.13
2022-10-23T12:05:09.206Z,93162.00
2022-10-23T12:07:41.914Z,93167.13
2022-10-23T12:10:28.927Z,93172.28
2022-10-23T12:13:00.909Z,93168.50
2022-10-23T12:15:30.998Z,93155.72
2022-10-23T12:18:17.050Z,93161.34
2022-10-23T12:20:53.222Z,93170.13
2022-10-23T12:23:56.381Z,93164.66
2022-10-23T12:26:54.492Z,93163.81
2022-10-23T12:29:59.630Z,93162.69
2022-10-23T12:32:54.465Z,93165.81
2022-10-23T12:36:06.327Z,93166.00
2022-10-23T12:38:40.900Z,93162.66
2022-10-23T12:41:16.587Z,93166.13
2022-10-23T12:43:52.209Z,93171.94
2022-10-23T12:46:34.231Z,93162.31
2022-10-23T12:52:29.223Z,93172.28
2022-10-23T12:54:59.652Z,93169.63
2022-10-23T12:57:31.814Z,93167.59
2022-10-23T13:00:04.792Z,93170.72
2022-10-23T13:02:35.323Z,93162.59
2022-10-23T13:05:08.848Z,93168.53
2022-10-23T13:07:46.312Z,93174.81
2022-10-23T13:10:18.529Z,93180.59
2022-10-23T13:12:56.655Z,93169.81
2022-10-23T13:15:27.329Z,93180.06
2022-10-23T13:18:05.008Z,93187.34
2022-10-23T13:20:36.946Z,93191.31
2022-10-23T13:23:19.746Z,93185.34
2022-10-23T13:25:57.687Z,93189.81
2022-10-23T13:28:30.026Z,93191.09
2022-10-23T13:31:24.615Z,93197.41
2022-10-23T13:34:07.908Z,93196.75
2022-10-23T13:36:41.044Z,93198.53
2022-10-23T13:39:18.509Z,93197.06
2022-10-23T13:41:49.064Z,93191.88
2022-10-23T13:44:22.238Z,93198.44
2022-10-23T13:46:52.322Z,93198.56
2022-10-23T13:49:22.511Z,93196.38
2022-10-23T13:51:54.791Z,93200.16
2022-10-23T13:57:01.098Z,93191.72
2022-10-23T13:59:30.393Z,93202.91
2022-10-23T14:01:59.885Z,93211.13
2022-10-23T14:04:29.245Z,93208.31
2022-10-23T14:06:58.946Z,93213.94
2022-10-23T14:09:29.778Z,93202.31
2022-10-23T14:11:59.110Z,93203.44
2022-10-23T14:14:28.526Z,93201.13
2022-10-23T14:16:58.225Z,93206.19
2022-10-23T14:19:27.617Z,93209.59
2022-10-23T14:21:57.148Z,93208.19
2022-10-23T14:24:26.858Z,93201.78
2022-10-23T14:26:57.742Z,93203.38
2022-10-23T14:29:27.283Z,93203.47
2022-10-23T14:31:56.835Z,93205.03
2022-10-23T14:34:26.367Z,93204.94
2022-10-23T14:37:07.750Z,93207.38
2022-10-23T14:39:38.389Z,93201.81
2022-10-23T14:42:09.240Z,93213.63
2022-10-23T14:47:12.855Z,93219.84
2022-10-23T14:49:43.118Z,93221.06
2022-10-23T14:52:12.504Z,93212.88
2022-10-23T14:54:41.900Z,93220.13
2022-10-23T14:57:16.574Z,93223.34
2022-10-23T14:59:46.288Z,93220.75
2022-10-23T15:02:15.747Z,93222.75
2022-10-23T15:04:45.193Z,93231.25
2022-10-23T15:07:14.701Z,93231.44
2022-10-23T15:09:44.056Z,93237.16
2022-10-23T15:12:14.910Z,93233.00
2022-10-23T15:14:44.164Z,93228.06
2022-10-23T15:17:15.745Z,93232.38
2022-10-23T15:19:45.410Z,93239.44
2022-10-23T15:22:14.815Z,93229.59
2022-10-23T15:24:44.191Z,93233.75
2022-10-23T15:27:15.014Z,93237.47
2022-10-23T15:29:44.751Z,93235.94
2022-10-23T15:32:14.808Z,93241.53
2022-10-23T15:34:44.374Z,93237.31
2022-10-23T15:37:13.693Z,93232.94
2022-10-23T15:39:43.265Z,93229.81
2022-10-23T15:42:14.569Z,93240.56
2022-10-23T15:44:43.969Z,93240.91
2022-10-23T15:47:13.568Z,93240.72
2022-10-23T15:52:29.084Z,93235.66
2022-10-23T15:54:58.308Z,93238.16
2022-10-23T15:57:28.348Z,93249.97
2022-10-23T15:59:58.257Z,93245.91
2022-10-23T16:02:27.748Z,93242.25
2022-10-23T16:04:57.169Z,93259.50
2022-10-23T16:07:28.129Z,93250.28
2022-10-23T16:09:57.518Z,93246.03
2022-10-23T16:12:27.121Z,93259.25
2022-10-23T16:14:56.577Z,93269.00
2022-10-23T16:17:25.923Z,93265.00
2022-10-23T16:19:55.195Z,93267.94
2022-10-23T16:22:24.753Z,93262.84
2022-10-23T16:24:57.389Z,93271.03
2022-10-23T16:27:27.101Z,93270.22
2022-10-23T16:29:56.554Z,93272.56
2022-10-23T16:32:25.947Z,93270.22
2022-10-23T16:34:55.334Z,93278.81
2022-10-23T16:37:24.731Z,93285.06
2022-10-23T16:39:55.617Z,93279.38
2022-10-23T16:42:25.099Z,93285.72
2022-10-23T16:44:54.488Z,93284.72
2022-10-23T16:47:23.920Z,93285.91
2022-10-23T16:49:53.305Z,93287.44
2022-10-23T16:52:22.882Z,93285.44
2022-10-23T16:54:52.392Z,93285.66
2022-10-23T16:57:23.310Z,93286.00
2022-10-23T16:59:52.752Z,93289.53
2022-10-23T17:02:22.282Z,93296.72
2022-10-23T17:04:51.880Z,93304.50
2022-10-23T17:09:52.117Z,93309.63
2022-10-23T17:12:22.948Z,93309.22
2022-10-23T17:14:52.344Z,93307.72
2022-10-23T17:17:21.884Z,93304.94
2022-10-23T17:19:51.325Z,93309.06
2022-10-23T17:22:20.629Z,93302.06
2022-10-23T17:24:52.970Z,93303.03
2022-10-23T17:27:24.876Z,93301.81
2022-10-23T17:29:54.338Z,93300.16
2022-10-23T17:32:23.969Z,93312.97
2022-10-23T17:34:53.521Z,93316.09
2022-10-23T17:37:22.892Z,93332.34
2022-10-23T17:39:52.323Z,93342.91
2022-10-23T17:42:21.759Z,93341.00
2022-10-23T17:44:52.637Z,93344.38
2022-10-23T17:47:21.978Z,93349.81
2022-10-23T17:49:51.448Z,93350.84
2022-10-23T17:52:20.745Z,93350.16
2022-10-23T17:54:54.248Z,93345.63
2022-10-23T17:59:59.216Z,93346.50
2022-10-23T18:02:28.927Z,93346.34
2022-10-23T18:04:58.487Z,93342.78
2022-10-23T18:07:29.486Z,93350.09
2022-10-23T18:09:58.989Z,93349.00
2022-10-23T18:12:29.716Z,93352.25
2022-10-23T18:15:01.139Z,93359.22
2022-10-23T18:17:30.406Z,93370.38
2022-10-23T18:20:02.223Z,93373.66
2022-10-23T18:22:33.465Z,93373.84
2022-10-23T18:25:04.944Z,93367.69
2022-10-23T18:27:34.428Z,93361.25
2022-10-23T18:30:05.970Z,93369.13
2022-10-23T18:32:35.496Z,93377.53
2022-10-23T18:35:05.032Z,93380.38
2022-10-23T18:37:39.026Z,93379.94
2022-10-23T18:40:13.489Z,93387.19
2022-10-23T18:42:43.140Z,93385.25
2022-10-23T18:45:17.047Z,93377.34
2022-10-23T18:47:46.618Z,93366.56
2022-10-23T18:52:28.848Z,93379.50
2022-10-23T18:54:58.389Z,93380.00
2022-10-23T18:57:27.838Z,93378.84
2022-10-23T18:59:58.672Z,93392.75
2022-10-23T19:02:28.288Z,93394.28
2022-10-23T19:04:58.089Z,93379.44
2022-10-23T19:07:29.225Z,93384.53
2022-10-23T19:09:58.912Z,93381.06
2022-10-23T19:12:28.415Z,93387.22
2022-10-23T19:14:57.815Z,93386.09
2022-10-23T19:17:32.885Z,93385.97
2022-10-23T19:20:09.808Z,93385.50
2022-10-23T19:22:43.201Z,93387.28
2022-10-23T19:25:16.989Z,93389.59
2022-10-23T19:27:48.170Z,93386.81
2022-10-23T19:30:22.574Z,93392.13
2022-10-23T19:32:53.203Z,93394.28
2022-10-23T19:35:24.456Z,93394.16
2022-10-23T19:37:55.137Z,93392.91
2022-10-23T19:40:25.108Z,93408.22
2022-10-23T19:42:55.260Z,93406.03
2022-10-23T19:45:24.658Z,93408.25
2022-10-23T19:47:53.985Z,93417.19
2022-10-23T19:50:23.289Z,93408.63
2022-10-23T19:52:54.117Z,93410.56
2022-10-23T19:55:23.544Z,93418.56
2022-10-23T19:57:52.832Z,93422.19
2022-10-23T20:00:22.991Z,93429.16
2022-10-23T20:02:55.149Z,93421.72
2022-10-23T20:05:24.774Z,93431.38
2022-10-23T20:07:56.242Z,93434.06
2022-10-23T20:10:26.044Z,93427.75
2022-10-23T20:12:57.077Z,93428.88
2022-10-23T20:15:31.964Z,93426.72
2022-10-23T20:18:01.223Z,93435.75
2022-10-23T20:23:01.324Z,93429.94
2022-10-23T20:25:30.645Z,93424.97
2022-10-23T20:28:00.037Z,93430.19
2022-10-23T20:30:29.470Z,93431.22
2022-10-23T20:32:58.875Z,93435.50
2022-10-23T20:35:28.187Z,93430.38
2022-10-23T20:37:57.489Z,93435.75
2022-10-23T20:40:28.188Z,93437.03
2022-10-23T20:42:57.433Z,93435.34
2022-10-23T20:45:26.822Z,93435.75
2022-10-23T20:47:56.165Z,93447.16
2022-10-23T20:50:25.714Z,93446.03
2022-10-23T20:52:55.069Z,93441.44
2022-10-23T20:55:24.370Z,93442.44
2022-10-23T20:57:55.805Z,93439.38
2022-10-23T21:00:26.473Z,93440.69
2022-10-23T21:02:56.071Z,93438.34
2022-10-23T21:05:25.951Z,93442.56
2022-10-23T21:07:55.206Z,93441.41
2022-10-23T21:10:24.577Z,93448.69
2022-10-23T21:12:55.563Z,93447.75
2022-10-23T21:15:25.000Z,93446.59
2022-10-23T21:17:54.499Z,93451.69
2022-10-23T21:20:23.912Z,93446.75
2022-10-23T21:22:55.769Z,93439.31
2022-10-23T21:25:26.296Z,93444.00
2022-10-23T21:27:57.128Z,93437.28
2022-10-23T21:30:26.475Z,93441.06
2022-10-23T21:32:55.771Z,93433.53
2022-10-23T21:35:27.786Z,93438.88
2022-10-23T21:38:00.228Z,93431.00
2022-10-23T21:40:29.559Z,93428.22
2022-10-23T21:43:00.237Z,93425.88
2022-10-23T21:45:29.718Z,93430.41
2022-10-23T21:47:59.040Z,93436.03
2022-10-23T21:52:28.869Z,93434.78
2022-10-23T21:54:58.097Z,93428.38
2022-10-23T21:57:30.224Z,93427.66
2022-10-23T21:59:59.714Z,93430.16
2022-10-23T22:02:29.289Z,93425.47
2022-10-23T22:04:58.794Z,93425.63
2022-10-23T22:10:04.071Z,93424.34
2022-10-23T22:12:33.547Z,93427.88
2022-10-23T22:15:03.096Z,93429.63
2022-10-23T22:17:32.444Z,93420.59
2022-10-23T22:20:01.865Z,93426.03
2022-10-23T22:22:32.679Z,93432.16
2022-10-23T22:25:02.004Z,93419.72
2022-10-23T22:27:31.488Z,93421.81
2022-10-23T22:30:03.928Z,93419.94
2022-10-23T22:32:33.489Z,93415.34
2022-10-23T22:35:02.907Z,93414.75
2022-10-23T22:37:33.756Z,93415.06
2022-10-23T22:40:03.384Z,93421.19
2022-10-23T22:42:32.749Z,93418.38
2022-10-23T22:45:02.183Z,93413.94
2022-10-23T22:47:31.873Z,93417.28
2022-10-23T22:50:01.188Z,93425.69
2022-10-23T22:52:30.429Z,93428.88
2022-10-23T22:55:01.356Z,93428.03
2022-10-23T22:57:30.712Z,93426.44
2022-10-23T23:00:00.007Z,93418.88
2022-10-23T23:02:29.323Z,93419.38
2022-10-23T23:04:59.996Z,93420.44
2022-10-23T23:07:30.526Z,93424.19
2022-10-23T23:10:01.196Z,93425.28
2022-10-23T23:12:30.540Z,93420.81
2022-10-23T23:15:00.494Z,93418.91
2022-10-23T23:17:29.845Z,93419.91
2022-10-23T23:19:59.565Z,93417.50
2022-10-23T23:22:28.919Z,93422.75
2022-10-23T23:24:59.749Z,93418.41
2022-10-23T23:27:29.046Z,93416.66
2022-10-23T23:29:59.558Z,93417.63
2022-10-23T23:32:29.018Z,93429.19
2022-10-23T23:35:00.079Z,93428.25
2022-10-23T23:37:29.758Z,93435.72
2022-10-23T23:40:00.650Z,93448.25
2022-10-23T23:42:29.979Z,93444.72
2022-10-23T23:45:10.120Z,93434.84
2022-10-23T23:47:43.922Z,93432.78
2022-10-23T23:50:14.466Z,93434.94
2022-10-23T23:52:43.672Z,93430.00
2022-10-23T23:55:15.131Z,93426.25
2022-10-23T23:57:44.549Z,93426.34
